sensor_id;sensor_type;location;lat;lon;timestamp;pressure;altitude;pressure_sealevel;temperature;humidity
19594;BME280;9944;48.240;16.478;2023-08-31T00:03:57;99061.06;;;16.83;61.76
19594;BME280;9944;48.240;16.478;2023-08-31T00:08:03;99077.81;;;16.87;61.82
19594;BME280;9944;48.240;16.478;2023-08-31T00:12:07;99083.81;;;16.92;62.00
19594;BME280;9944;48.240;16.478;2023-08-31T00:16:10;99077.44;;;16.96;62.23
19594;BME280;9944;48.240;16.478;2023-08-31T00:20:14;99081.78;;;16.98;61.90
19594;BME280;9944;48.240;16.478;2023-08-31T00:24:20;99088.84;;;16.99;62.14
19594;BME280;9944;48.240;16.478;2023-08-31T00:28:24;99093.28;;;16.99;62.26
19594;BME280;9944;48.240;16.478;2023-08-31T00:32:29;99094.31;;;16.96;62.42
19594;BME280;9944;48.240;16.478;2023-08-31T00:36:34;99097.22;;;16.90;62.14
19594;BME280;9944;48.240;16.478;2023-08-31T00:40:40;99102.88;;;16.83;62.21
19594;BME280;9944;48.240;16.478;2023-08-31T00:44:44;99103.16;;;16.75;61.93
19594;BME280;9944;48.240;16.478;2023-08-31T00:48:48;99103.28;;;16.72;62.09
19594;BME280;9944;48.240;16.478;2023-08-31T00:52:51;99100.78;;;16.67;62.07
19594;BME280;9944;48.240;16.478;2023-08-31T00:56:56;99110.69;;;16.63;62.40
19594;BME280;9944;48.240;16.478;2023-08-31T01:01:05;99111.56;;;16.64;62.64
19594;BME280;9944;48.240;16.478;2023-08-31T01:05:13;99112.50;;;16.63;62.95
19594;BME280;9944;48.240;16.478;2023-08-31T01:09:31;99117.78;;;16.65;63.15
19594;BME280;9944;48.240;16.478;2023-08-31T01:13:41;99123.16;;;16.63;63.39
19594;BME280;9944;48.240;16.478;2023-08-31T01:17:50;99119.56;;;16.64;63.64
19594;BME280;9944;48.240;16.478;2023-08-31T01:21:57;99129.34;;;16.63;63.58
19594;BME280;9944;48.240;16.478;2023-08-31T01:26:04;99133.03;;;16.61;63.84
19594;BME280;9944;48.240;16.478;2023-08-31T01:30:08;99139.16;;;16.63;64.13
19594;BME280;9944;48.240;16.478;2023-08-31T01:34:11;99140.88;;;16.64;64.20
19594;BME280;9944;48.240;16.478;2023-08-31T01:38:17;99139.97;;;16.65;64.46
19594;BME280;9944;48.240;16.478;2023-08-31T01:42:26;99143.59;;;16.62;64.35
19594;BME280;9944;48.240;16.478;2023-08-31T01:46:31;99150.78;;;16.60;64.44
19594;BME280;9944;48.240;16.478;2023-08-31T01:50:34;99148.38;;;16.54;64.42
19594;BME280;9944;48.240;16.478;2023-08-31T01:54:37;99155.75;;;16.48;64.64
19594;BME280;9944;48.240;16.478;2023-08-31T01:58:42;99154.88;;;16.47;65.29
19594;BME280;9944;48.240;16.478;2023-08-31T02:02:46;99155.75;;;16.48;66.03
19594;BME280;9944;48.240;16.478;2023-08-31T02:06:49;99160.13;;;16.49;66.78
19594;BME280;9944;48.240;16.478;2023-08-31T02:10:53;99167.31;;;16.47;67.24
19594;BME280;9944;48.240;16.478;2023-08-31T02:14:58;99162.19;;;16.42;67.53
19594;BME280;9944;48.240;16.478;2023-08-31T02:19:02;99166.63;;;16.41;68.34
19594;BME280;9944;48.240;16.478;2023-08-31T02:23:05;99168.38;;;16.42;68.80
19594;BME280;9944;48.240;16.478;2023-08-31T02:27:09;99163.03;;;16.42;69.01
19594;BME280;9944;48.240;16.478;2023-08-31T02:31:14;99163.19;;;16.38;69.39
19594;BME280;9944;48.240;16.478;2023-08-31T02:35:18;99163.44;;;16.32;69.71
19594;BME280;9944;48.240;16.478;2023-08-31T02:39:22;99158.22;;;16.29;69.72
19594;BME280;9944;48.240;16.478;2023-08-31T02:43:25;99167.06;;;16.29;70.16
19594;BME280;9944;48.240;16.478;2023-08-31T02:47:32;99164.34;;;16.31;70.46
19594;BME280;9944;48.240;16.478;2023-08-31T02:51:35;99165.22;;;16.31;70.69
19594;BME280;9944;48.240;16.478;2023-08-31T02:55:39;99172.41;;;16.29;70.84
19594;BME280;9944;48.240;16.478;2023-08-31T02:59:42;99169.69;;;16.31;71.19
19594;BME280;9944;48.240;16.478;2023-08-31T03:03:48;99181.19;;;16.31;71.19
19594;BME280;9944;48.240;16.478;2023-08-31T03:07:54;99177.72;;;16.29;71.41
19594;BME280;9944;48.240;16.478;2023-08-31T03:12:01;99187.59;;;16.27;71.61
19594;BME280;9944;48.240;16.478;2023-08-31T03:16:04;99181.34;;;16.28;71.76
19594;BME280;9944;48.240;16.478;2023-08-31T03:20:09;99183.06;;;16.29;72.17
19594;BME280;9944;48.240;16.478;2023-08-31T03:24:13;99179.59;;;16.27;72.20
19594;BME280;9944;48.240;16.478;2023-08-31T03:28:16;99177.03;;;16.24;72.45
19594;BME280;9944;48.240;16.478;2023-08-31T03:32:20;99177.94;;;16.24;72.53
19594;BME280;9944;48.240;16.478;2023-08-31T03:36:25;99177.03;;;16.24;72.85
19594;BME280;9944;48.240;16.478;2023-08-31T03:40:30;99167.28;;;16.24;72.96
19594;BME280;9944;48.240;16.478;2023-08-31T03:44:34;99177.03;;;16.24;73.26
19594;BME280;9944;48.240;16.478;2023-08-31T03:48:39;99173.50;;;16.23;73.40
19594;BME280;9944;48.240;16.478;2023-08-31T03:52:44;99174.56;;;16.19;73.36
19594;BME280;9944;48.240;16.478;2023-08-31T03:56:47;99174.63;;;16.18;73.40
19594;BME280;9944;48.240;16.478;2023-08-31T04:00:52;99179.06;;;16.17;73.63
19594;BME280;9944;48.240;16.478;2023-08-31T04:04:57;99187.13;;;16.16;73.68
19594;BME280;9944;48.240;16.478;2023-08-31T04:09:02;99193.38;;;16.15;73.97
19594;BME280;9944;48.240;16.478;2023-08-31T04:13:08;99190.69;;;16.15;74.02
19594;BME280;9944;48.240;16.478;2023-08-31T04:17:12;99192.44;;;16.16;74.27
19594;BME280;9944;48.240;16.478;2023-08-31T04:21:16;99208.53;;;16.13;74.20
19594;BME280;9944;48.240;16.478;2023-08-31T04:25:21;99199.59;;;16.14;74.25
19594;BME280;9944;48.240;16.478;2023-08-31T04:29:24;99202.44;;;16.09;74.22
19594;BME280;9944;48.240;16.478;2023-08-31T04:33:28;99205.25;;;16.04;74.37
19594;BME280;9944;48.240;16.478;2023-08-31T04:37:31;99210.78;;;15.98;73.84
19594;BME280;9944;48.240;16.478;2023-08-31T04:41:36;99219.00;;;15.92;73.91
19594;BME280;9944;48.240;16.478;2023-08-31T04:45:40;99222.59;;;15.91;74.01
19594;BME280;9944;48.240;16.478;2023-08-31T04:49:43;99225.44;;;15.85;73.53
19594;BME280;9944;48.240;16.478;2023-08-31T04:53:47;99216.75;;;15.80;72.84
19594;BME280;9944;48.240;16.478;2023-08-31T04:57:52;99219.50;;;15.77;72.62
19594;BME280;9944;48.240;16.478;2023-08-31T05:01:55;99226.72;;;15.73;72.53
19594;BME280;9944;48.240;16.478;2023-08-31T05:05:59;99227.59;;;15.74;72.25
19594;BME280;9944;48.240;16.478;2023-08-31T05:10:03;99235.63;;;15.72;72.00
19594;BME280;9944;48.240;16.478;2023-08-31T05:14:08;99237.47;;;15.70;71.69
19594;BME280;9944;48.240;16.478;2023-08-31T05:18:11;99248.13;;;15.70;71.46
19594;BME280;9944;48.240;16.478;2023-08-31T05:22:15;99261.38;;;15.72;71.56
19594;BME280;9944;48.240;16.478;2023-08-31T05:26:18;99262.25;;;15.72;71.83
19594;BME280;9944;48.240;16.478;2023-08-31T05:30:23;99269.22;;;15.76;71.93
19594;BME280;9944;48.240;16.478;2023-08-31T05:34:27;99275.31;;;15.80;72.00
19594;BME280;9944;48.240;16.478;2023-08-31T05:38:31;99277.16;;;15.78;71.57
19594;BME280;9944;48.240;16.478;2023-08-31T05:42:34;99273.56;;;15.79;71.37
19594;BME280;9944;48.240;16.478;2023-08-31T05:46:39;99283.25;;;15.81;71.21
19594;BME280;9944;48.240;16.478;2023-08-31T05:50:43;99281.34;;;15.85;71.14
19594;BME280;9944;48.240;16.478;2023-08-31T05:54:46;99284.72;;;15.92;71.03
19594;BME280;9944;48.240;16.478;2023-08-31T05:58:50;99274.69;;;15.98;70.77
19594;BME280;9944;48.240;16.478;2023-08-31T06:02:58;99285.03;;;16.08;70.29
19594;BME280;9944;48.240;16.478;2023-08-31T06:07:02;99290.03;;;16.17;69.91
19594;BME280;9944;48.240;16.478;2023-08-31T06:11:05;99293.25;;;16.27;69.67
19594;BME280;9944;48.240;16.478;2023-08-31T06:15:10;99285.78;;;16.36;69.83
19594;BME280;9944;48.240;16.478;2023-08-31T06:19:15;99287.31;;;16.43;69.75
19594;BME280;9944;48.240;16.478;2023-08-31T06:23:18;99296.91;;;16.49;69.09
19594;BME280;9944;48.240;16.478;2023-08-31T06:27:21;99293.13;;;16.55;68.97
19594;BME280;9944;48.240;16.478;2023-08-31T06:31:25;99296.44;;;16.61;68.61
19594;BME280;9944;48.240;16.478;2023-08-31T06:35:30;99294.47;;;16.67;66.92
19594;BME280;9944;48.240;16.478;2023-08-31T06:39:33;99288.06;;;16.72;66.58
19594;BME280;9944;48.240;16.478;2023-08-31T06:43:38;99294.06;;;16.77;65.37
19594;BME280;9944;48.240;16.478;2023-08-31T06:47:41;99305.38;;;16.86;64.94
19594;BME280;9944;48.240;16.478;2023-08-31T06:51:46;99309.53;;;16.93;64.82
19594;BME280;9944;48.240;16.478;2023-08-31T06:55:50;99300.31;;;17.02;63.68
19594;BME280;9944;48.240;16.478;2023-08-31T06:59:54;99301.59;;;17.15;63.96
19594;BME280;9944;48.240;16.478;2023-08-31T07:03:58;99312.63;;;17.28;63.89
19594;BME280;9944;48.240;16.478;2023-08-31T07:08:03;99315.81;;;17.37;63.43
19594;BME280;9944;48.240;16.478;2023-08-31T07:12:07;99316.31;;;17.47;62.57
19594;BME280;9944;48.240;16.478;2023-08-31T07:16:14;99321.84;;;17.65;62.46
19594;BME280;9944;48.240;16.478;2023-08-31T07:20:27;99333.78;;;17.78;62.45
19594;BME280;9944;48.240;16.478;2023-08-31T07:24:32;99335.41;;;17.82;61.69
19594;BME280;9944;48.240;16.478;2023-08-31T07:28:37;99345.03;;;17.86;61.36
19594;BME280;9944;48.240;16.478;2023-08-31T07:32:43;99345.84;;;17.88;60.86
19594;BME280;9944;48.240;16.478;2023-08-31T07:36:52;99358.13;;;17.92;60.95
19594;BME280;9944;48.240;16.478;2023-08-31T07:40:57;99359.47;;;18.03;60.93
19594;BME280;9944;48.240;16.478;2023-08-31T07:45:01;99369.47;;;18.20;61.27
19594;BME280;9944;48.240;16.478;2023-08-31T07:49:04;99365.19;;;18.36;61.42
19594;BME280;9944;48.240;16.478;2023-08-31T07:53:08;99369.09;;;18.49;59.80
19594;BME280;9944;48.240;16.478;2023-08-31T07:57:13;99380.28;;;18.59;60.25
19594;BME280;9944;48.240;16.478;2023-08-31T08:01:17;99376.22;;;18.71;59.85
19594;BME280;9944;48.240;16.478;2023-08-31T08:05:21;99379.34;;;18.81;60.20
19594;BME280;9944;48.240;16.478;2023-08-31T08:09:24;99385.16;;;18.91;59.88
19594;BME280;9944;48.240;16.478;2023-08-31T08:13:30;99386.63;;;18.98;59.78
19594;BME280;9944;48.240;16.478;2023-08-31T08:17:33;99389.66;;;19.09;59.34
19594;BME280;9944;48.240;16.478;2023-08-31T08:21:37;99388.22;;;19.21;59.40
19594;BME280;9944;48.240;16.478;2023-08-31T08:25:40;99385.94;;;19.32;58.68
19594;BME280;9944;48.240;16.478;2023-08-31T08:29:45;99400.63;;;19.42;57.75
19594;BME280;9944;48.240;16.478;2023-08-31T08:33:49;99394.09;;;19.50;57.60
19594;BME280;9944;48.240;16.478;2023-08-31T08:37:52;99393.72;;;19.57;57.52
19594;BME280;9944;48.240;16.478;2023-08-31T08:41:58;99402.03;;;19.70;56.50
19594;BME280;9944;48.240;16.478;2023-08-31T08:46:05;99396.25;;;19.79;56.68
19594;BME280;9944;48.240;16.478;2023-08-31T08:50:10;99395.78;;;19.89;56.25
19594;BME280;9944;48.240;16.478;2023-08-31T08:54:15;99396.94;;;20.02;55.66
19594;BME280;9944;48.240;16.478;2023-08-31T08:58:18;99399.13;;;20.11;55.45
19594;BME280;9944;48.240;16.478;2023-08-31T09:02:23;99405.84;;;20.20;54.72
19594;BME280;9944;48.240;16.478;2023-08-31T09:06:27;99410.06;;;20.26;54.40
19594;BME280;9944;48.240;16.478;2023-08-31T09:10:34;99408.75;;;20.34;53.82
19594;BME280;9944;48.240;16.478;2023-08-31T09:14:38;99414.91;;;20.36;54.40
19594;BME280;9944;48.240;16.478;2023-08-31T09:18:44;99422.47;;;20.46;54.13
19594;BME280;9944;48.240;16.478;2023-08-31T09:22:47;99423.03;;;20.52;53.77
19594;BME280;9944;48.240;16.478;2023-08-31T09:26:56;99423.03;;;20.52;53.35
19594;BME280;9944;48.240;16.478;2023-08-31T09:31:05;99429.97;;;20.56;53.38
19594;BME280;9944;48.240;16.478;2023-08-31T09:35:11;99438.84;;;20.76;52.88
19594;BME280;9944;48.240;16.478;2023-08-31T09:39:21;99437.22;;;20.89;53.34
19594;BME280;9944;48.240;16.478;2023-08-31T09:43:25;99436.38;;;21.06;52.99
19594;BME280;9944;48.240;16.478;2023-08-31T09:47:28;99448.78;;;21.09;52.79
19594;BME280;9944;48.240;16.478;2023-08-31T09:51:33;99435.78;;;21.17;51.98
19594;BME280;9944;48.240;16.478;2023-08-31T09:55:39;99446.94;;;21.27;51.51
19594;BME280;9944;48.240;16.478;2023-08-31T09:59:43;99436.09;;;21.28;51.77
19594;BME280;9944;48.240;16.478;2023-08-31T10:03:47;99437.19;;;21.24;51.36
19594;BME280;9944;48.240;16.478;2023-08-31T10:08:17;99441.72;;;21.24;51.83
19594;BME280;9944;48.240;16.478;2023-08-31T10:12:22;99448.44;;;21.15;51.44
19594;BME280;9944;48.240;16.478;2023-08-31T10:16:25;99450.66;;;21.07;50.89
19594;BME280;9944;48.240;16.478;2023-08-31T10:20:30;99454.59;;;21.00;50.85
19594;BME280;9944;48.240;16.478;2023-08-31T10:24:58;99456.63;;;20.94;50.51
19594;BME280;9944;48.240;16.478;2023-08-31T10:29:02;99456.09;;;20.88;50.80
19594;BME280;9944;48.240;16.478;2023-08-31T10:33:21;99450.97;;;21.01;51.30
19594;BME280;9944;48.240;16.478;2023-08-31T10:37:27;99455.88;;;21.10;51.59
19594;BME280;9944;48.240;16.478;2023-08-31T10:41:33;99461.47;;;21.23;50.08
19594;BME280;9944;48.240;16.478;2023-08-31T10:45:43;99458.53;;;21.27;48.71
19594;BME280;9944;48.240;16.478;2023-08-31T10:49:50;99467.53;;;21.26;49.17
19594;BME280;9944;48.240;16.478;2023-08-31T10:54:19;99455.06;;;21.25;49.36
19594;BME280;9944;48.240;16.478;2023-08-31T10:58:31;99457.09;;;21.38;48.61
19594;BME280;9944;48.240;16.478;2023-08-31T11:02:36;99461.72;;;21.52;48.21
19594;BME280;9944;48.240;16.478;2023-08-31T11:06:39;99454.63;;;21.66;47.52
19594;BME280;9944;48.240;16.478;2023-08-31T11:10:45;99459.19;;;21.82;47.08
19594;BME280;9944;48.240;16.478;2023-08-31T11:14:50;99457.13;;;22.03;46.80
19594;BME280;9944;48.240;16.478;2023-08-31T11:18:54;99450.94;;;22.17;45.99
19594;BME280;9944;48.240;16.478;2023-08-31T11:22:58;99447.03;;;22.22;45.72
19594;BME280;9944;48.240;16.478;2023-08-31T11:27:01;99463.84;;;22.26;45.40
19594;BME280;9944;48.240;16.478;2023-08-31T11:31:07;99462.09;;;22.25;44.13
19594;BME280;9944;48.240;16.478;2023-08-31T11:35:10;99469.00;;;22.15;44.16
19594;BME280;9944;48.240;16.478;2023-08-31T11:39:14;99470.97;;;22.11;44.42
19594;BME280;9944;48.240;16.478;2023-08-31T11:43:18;99460.56;;;22.21;44.41
19594;BME280;9944;48.240;16.478;2023-08-31T11:47:23;99470.44;;;22.36;44.55
19594;BME280;9944;48.240;16.478;2023-08-31T11:51:28;99464.50;;;22.46;43.08
19594;BME280;9944;48.240;16.478;2023-08-31T11:55:33;99484.84;;;22.51;43.02
19594;BME280;9944;48.240;16.478;2023-08-31T11:59:38;99473.56;;;22.44;43.60
19594;BME280;9944;48.240;16.478;2023-08-31T12:03:43;99486.81;;;22.48;44.49
19594;BME280;9944;48.240;16.478;2023-08-31T12:07:53;99496.44;;;22.52;44.37
19594;BME280;9944;48.240;16.478;2023-08-31T12:11:56;99490.94;;;22.55;44.23
19594;BME280;9944;48.240;16.478;2023-08-31T12:16:02;99497.16;;;22.55;43.70
19594;BME280;9944;48.240;16.478;2023-08-31T12:20:08;99490.38;;;22.64;44.91
19594;BME280;9944;48.240;16.478;2023-08-31T12:24:14;99478.13;;;22.74;44.75
19594;BME280;9944;48.240;16.478;2023-08-31T12:28:20;99491.63;;;22.89;44.84
19594;BME280;9944;48.240;16.478;2023-08-31T12:32:24;99488.56;;;22.95;44.38
19594;BME280;9944;48.240;16.478;2023-08-31T12:36:28;99489.84;;;23.04;44.88
19594;BME280;9944;48.240;16.478;2023-08-31T12:40:32;99480.88;;;23.03;44.01
19594;BME280;9944;48.240;16.478;2023-08-31T12:44:35;99482.22;;;22.96;43.50
19594;BME280;9944;48.240;16.478;2023-08-31T12:48:39;99486.47;;;23.00;43.97
19594;BME280;9944;48.240;16.478;2023-08-31T12:52:43;99485.03;;;23.09;43.92
19594;BME280;9944;48.240;16.478;2023-08-31T12:56:48;99484.75;;;23.13;43.61
19594;BME280;9944;48.240;16.478;2023-08-31T13:00:51;99496.34;;;22.99;42.75
19594;BME280;9944;48.240;16.478;2023-08-31T13:04:55;99494.94;;;22.78;42.85
19594;BME280;9944;48.240;16.478;2023-08-31T13:09:00;99490.72;;;22.74;43.34
19594;BME280;9944;48.240;16.478;2023-08-31T13:13:05;99492.34;;;22.76;43.43
19594;BME280;9944;48.240;16.478;2023-08-31T13:17:08;99489.47;;;22.79;42.66
19594;BME280;9944;48.240;16.478;2023-08-31T13:21:11;99505.81;;;22.76;42.60
19594;BME280;9944;48.240;16.478;2023-08-31T13:25:16;99503.56;;;22.69;42.48
19594;BME280;9944;48.240;16.478;2023-08-31T13:29:20;99500.75;;;22.70;43.10
19594;BME280;9944;48.240;16.478;2023-08-31T13:33:23;99497.91;;;22.73;42.80
19594;BME280;9944;48.240;16.478;2023-08-31T13:37:27;99507.56;;;22.77;42.53
19594;BME280;9944;48.240;16.478;2023-08-31T13:41:32;99505.97;;;22.73;42.65
19594;BME280;9944;48.240;16.478;2023-08-31T13:45:35;99510.00;;;22.66;41.61
19594;BME280;9944;48.240;16.478;2023-08-31T13:49:39;99501.41;;;22.59;42.33
19594;BME280;9944;48.240;16.478;2023-08-31T13:53:42;99501.16;;;22.64;43.61
19594;BME280;9944;48.240;16.478;2023-08-31T13:57:47;99511.75;;;22.67;42.89
19594;BME280;9944;48.240;16.478;2023-08-31T14:01:50;99504.00;;;22.61;42.44
19594;BME280;9944;48.240;16.478;2023-08-31T14:05:53;99501.31;;;22.61;43.33
19594;BME280;9944;48.240;16.478;2023-08-31T14:09:57;99504.78;;;22.63;42.75
19594;BME280;9944;48.240;16.478;2023-08-31T14:14:05;99505.66;;;22.64;42.90
19594;BME280;9944;48.240;16.478;2023-08-31T14:18:13;99501.16;;;22.64;42.55
19594;BME280;9944;48.240;16.478;2023-08-31T14:22:17;99502.97;;;22.64;42.46
19594;BME280;9944;48.240;16.478;2023-08-31T14:26:21;99515.75;;;22.60;42.67
19594;BME280;9944;48.240;16.478;2023-08-31T14:30:27;99499.13;;;22.52;41.90
19594;BME280;9944;48.240;16.478;2023-08-31T14:34:30;99510.75;;;22.52;42.12
19594;BME280;9944;48.240;16.478;2023-08-31T14:38:33;99503.56;;;22.53;42.38
19594;BME280;9944;48.240;16.478;2023-08-31T14:42:37;99516.22;;;22.51;41.64
19594;BME280;9944;48.240;16.478;2023-08-31T14:46:41;99517.28;;;22.48;41.95
19594;BME280;9944;48.240;16.478;2023-08-31T14:50:45;99517.53;;;22.43;42.12
19594;BME280;9944;48.240;16.478;2023-08-31T14:54:48;99519.53;;;22.40;41.51
19594;BME280;9944;48.240;16.478;2023-08-31T14:58:51;99517.47;;;22.29;41.25
19594;BME280;9944;48.240;16.478;2023-08-31T15:02:56;99505.50;;;22.19;42.12
19594;BME280;9944;48.240;16.478;2023-08-31T15:07:01;99520.78;;;22.18;42.62
19594;BME280;9944;48.240;16.478;2023-08-31T15:11:04;99527.00;;;22.19;41.73
19594;BME280;9944;48.240;16.478;2023-08-31T15:15:09;99522.84;;;22.13;42.46
19594;BME280;9944;48.240;16.478;2023-08-31T15:19:13;99518.50;;;22.11;41.73
19594;BME280;9944;48.240;16.478;2023-08-31T15:23:20;99524.03;;;22.08;42.17
19594;BME280;9944;48.240;16.478;2023-08-31T15:27:24;99531.50;;;22.02;42.70
19594;BME280;9944;48.240;16.478;2023-08-31T15:31:27;99533.50;;;21.99;42.77
19594;BME280;9944;48.240;16.478;2023-08-31T15:35:32;99534.78;;;21.92;42.08
19594;BME280;9944;48.240;16.478;2023-08-31T15:39:35;99530.63;;;21.86;42.01
19594;BME280;9944;48.240;16.478;2023-08-31T15:43:38;99541.66;;;21.80;41.46
19594;BME280;9944;48.240;16.478;2023-08-31T15:47:42;99544.69;;;21.74;41.96
19594;BME280;9944;48.240;16.478;2023-08-31T15:51:46;99551.97;;;21.72;42.61
19594;BME280;9944;48.240;16.478;2023-08-31T15:55:50;99546.84;;;21.67;41.93
19594;BME280;9944;48.240;16.478;2023-08-31T15:59:57;99551.75;;;21.59;42.50
19594;BME280;9944;48.240;16.478;2023-08-31T16:04:01;99553.72;;;21.55;42.86
19594;BME280;9944;48.240;16.478;2023-08-31T16:08:05;99552.00;;;21.54;43.07
19594;BME280;9944;48.240;16.478;2023-08-31T16:12:09;99556.75;;;21.49;43.07
19594;BME280;9944;48.240;16.478;2023-08-31T16:16:12;99564.28;;;21.42;42.96
19594;BME280;9944;48.240;16.478;2023-08-31T16:20:16;99562.03;;;21.33;43.38
19594;BME280;9944;48.240;16.478;2023-08-31T16:24:21;99562.53;;;21.24;43.71
19594;BME280;9944;48.240;16.478;2023-08-31T16:28:25;99565.63;;;21.16;43.92
19594;BME280;9944;48.240;16.478;2023-08-31T16:32:28;99571.22;;;21.11;43.88
19594;BME280;9944;48.240;16.478;2023-08-31T16:36:32;99571.53;;;21.05;43.71
19594;BME280;9944;48.240;16.478;2023-08-31T16:40:36;99564.78;;;20.97;44.38
19594;BME280;9944;48.240;16.478;2023-08-31T16:44:40;99558.78;;;20.91;44.21
19594;BME280;9944;48.240;16.478;2023-08-31T16:48:49;99559.09;;;20.85;43.82
19594;BME280;9944;48.240;16.478;2023-08-31T16:52:53;99560.28;;;20.80;43.77
19594;BME280;9944;48.240;16.478;2023-08-31T16:56:58;99565.06;;;20.73;44.06
19594;BME280;9944;48.240;16.478;2023-08-31T17:01:02;99565.34;;;20.67;44.51
19594;BME280;9944;48.240;16.478;2023-08-31T17:05:06;99557.72;;;20.59;44.62
19594;BME280;9944;48.240;16.478;2023-08-31T17:09:10;99570.53;;;20.52;44.55
19594;BME280;9944;48.240;16.478;2023-08-31T17:13:14;99572.66;;;20.46;45.26
19594;BME280;9944;48.240;16.478;2023-08-31T17:17:18;99574.53;;;20.44;45.15
19594;BME280;9944;48.240;16.478;2023-08-31T17:21:21;99577.28;;;20.42;45.29
19594;BME280;9944;48.240;16.478;2023-08-31T17:25:24;99583.69;;;20.40;46.06
19594;BME280;9944;48.240;16.478;2023-08-31T17:29:30;99581.34;;;20.32;45.57
19594;BME280;9944;48.240;16.478;2023-08-31T17:33:33;99581.75;;;20.23;45.84
19594;BME280;9944;48.240;16.478;2023-08-31T17:37:38;99586.53;;;20.16;46.08
19594;BME280;9944;48.240;16.478;2023-08-31T17:41:42;99592.28;;;20.08;45.65
19594;BME280;9944;48.240;16.478;2023-08-31T17:45:46;99604.06;;;20.04;45.75
19594;BME280;9944;48.240;16.478;2023-08-31T17:49:50;99599.00;;;19.98;46.10
19594;BME280;9944;48.240;16.478;2023-08-31T17:53:53;99601.09;;;19.91;45.95
19594;BME280;9944;48.240;16.478;2023-08-31T17:58:00;99615.75;;;19.83;45.74
19594;BME280;9944;48.240;16.478;2023-08-31T18:02:05;99618.69;;;19.76;46.17
19594;BME280;9944;48.240;16.478;2023-08-31T18:06:09;99627.94;;;19.69;46.05
19594;BME280;9944;48.240;16.478;2023-08-31T18:10:13;99634.41;;;19.65;46.00
19594;BME280;9944;48.240;16.478;2023-08-31T18:14:17;99632.78;;;19.61;46.12
19594;BME280;9944;48.240;16.478;2023-08-31T18:18:22;99641.03;;;19.56;46.43
19594;BME280;9944;48.240;16.478;2023-08-31T18:22:28;99646.63;;;19.50;46.80
19594;BME280;9944;48.240;16.478;2023-08-31T18:26:33;99648.56;;;19.47;46.79
19594;BME280;9944;48.240;16.478;2023-08-31T18:30:36;99654.06;;;19.42;47.19
19594;BME280;9944;48.240;16.478;2023-08-31T18:34:42;99660.56;;;19.36;47.16
19594;BME280;9944;48.240;16.478;2023-08-31T18:38:46;99664.31;;;19.32;47.28
19594;BME280;9944;48.240;16.478;2023-08-31T18:42:49;99671.56;;;19.30;47.45
19594;BME280;9944;48.240;16.478;2023-08-31T18:46:53;99672.53;;;19.28;47.68
19594;BME280;9944;48.240;16.478;2023-08-31T18:50:58;99681.59;;;19.25;47.87
19594;BME280;9944;48.240;16.478;2023-08-31T18:55:05;99682.50;;;19.24;47.98
19594;BME280;9944;48.240;16.478;2023-08-31T18:59:08;99677.22;;;19.22;47.74
19594;BME280;9944;48.240;16.478;2023-08-31T19:03:12;99688.88;;;19.21;47.90
19594;BME280;9944;48.240;16.478;2023-08-31T19:07:16;99687.13;;;19.20;48.22
19594;BME280;9944;48.240;16.478;2023-08-31T19:15:36;99689.84;;;19.19;48.63
19594;BME280;9944;48.240;16.478;2023-08-31T19:19:41;99678.41;;;19.15;48.66
19594;BME280;9944;48.240;16.478;2023-08-31T19:23:45;99681.25;;;19.11;48.65
19594;BME280;9944;48.240;16.478;2023-08-31T19:27:49;99686.75;;;19.08;49.04
19594;BME280;9944;48.240;16.478;2023-08-31T19:31:52;99697.53;;;19.06;49.28
19594;BME280;9944;48.240;16.478;2023-08-31T19:35:57;99700.19;;;19.06;49.54
19594;BME280;9944;48.240;16.478;2023-08-31T19:40:02;99695.81;;;19.03;49.93
19594;BME280;9944;48.240;16.478;2023-08-31T19:44:07;99698.63;;;19.00;49.93
19594;BME280;9944;48.240;16.478;2023-08-31T19:48:10;99698.69;;;18.99;50.44
19594;BME280;9944;48.240;16.478;2023-08-31T19:52:14;99697.94;;;18.95;50.28
19594;BME280;9944;48.240;16.478;2023-08-31T19:56:19;99705.28;;;18.90;50.78
19594;BME280;9944;48.240;16.478;2023-08-31T20:00:23;99707.28;;;18.85;50.92
19594;BME280;9944;48.240;16.478;2023-08-31T20:04:27;99704.03;;;18.77;51.16
19594;BME280;9944;48.240;16.478;2023-08-31T20:08:31;99714.09;;;18.70;51.50
19594;BME280;9944;48.240;16.478;2023-08-31T20:12:36;99709.06;;;18.61;51.64
19594;BME280;9944;48.240;16.478;2023-08-31T20:16:40;99707.41;;;18.57;51.78
19594;BME280;9944;48.240;16.478;2023-08-31T20:20:43;99709.44;;;18.50;52.02
19594;BME280;9944;48.240;16.478;2023-08-31T20:24:50;99713.28;;;18.43;52.02
19594;BME280;9944;48.240;16.478;2023-08-31T20:28:54;99716.31;;;18.34;52.45
19594;BME280;9944;48.240;16.478;2023-08-31T20:32:58;99723.63;;;18.28;52.73
19594;BME280;9944;48.240;16.478;2023-08-31T20:37:01;99731.69;;;18.27;53.03
19594;BME280;9944;48.240;16.478;2023-08-31T20:41:06;99730.13;;;18.21;53.09
19594;BME280;9944;48.240;16.478;2023-08-31T20:45:11;99727.81;;;18.12;53.24
19594;BME280;9944;48.240;16.478;2023-08-31T20:49:14;99731.59;;;18.05;53.25
19594;BME280;9944;48.240;16.478;2023-08-31T20:53:17;99736.13;;;18.03;53.55
19594;BME280;9944;48.240;16.478;2023-08-31T20:57:21;99732.75;;;17.98;53.73
19594;BME280;9944;48.240;16.478;2023-08-31T21:01:25;99732.78;;;17.96;54.05
19594;BME280;9944;48.240;16.478;2023-08-31T21:05:29;99741.00;;;17.91;54.16
19594;BME280;9944;48.240;16.478;2023-08-31T21:09:32;99742.91;;;17.88;54.33
19594;BME280;9944;48.240;16.478;2023-08-31T21:13:35;99745.78;;;17.82;54.64
19594;BME280;9944;48.240;16.478;2023-08-31T21:17:40;99754.91;;;17.74;54.78
19594;BME280;9944;48.240;16.478;2023-08-31T21:21:52;99746.44;;;17.62;55.11
19594;BME280;9944;48.240;16.478;2023-08-31T21:26:06;99760.97;;;17.53;55.23
19594;BME280;9944;48.240;16.478;2023-08-31T21:30:12;99756.75;;;17.44;55.63
19594;BME280;9944;48.240;16.478;2023-08-31T21:34:17;99757.84;;;17.38;55.93
19594;BME280;9944;48.240;16.478;2023-08-31T21:38:20;99758.94;;;17.33;56.27
19594;BME280;9944;48.240;16.478;2023-08-31T21:42:23;99772.34;;;17.30;56.38